Time;durP1;ratioP1;P1;durP2;ratioP2;P2;SDS_P1;SDS_P2;PMS_P1;PMS_P2;Temp;Humidity;BMP_temperature;BMP_pressure;BME280_temperature;BME280_humidity;BME280_pressure;Samples;Min_cycle;Max_cycle;Signal;HPM_P1;HPM_P2
2023/12/11 00:01:31;;;;;;;5.90;2.53;;;;;;;-6.66;68.88;100424.31;4948520;28;20483;-55
2023/12/11 00:03:57;;;;;;;8.63;2.75;;;;;;;-6.91;68.79;100379.31;4936485;29;20047;-57
2023/12/11 00:06:23;;;;;;;6.57;2.72;;;;;;;-6.65;69.12;100425.19;4954630;28;20039;-59
2023/12/11 00:08:49;;;;;;;5.50;2.95;;;;;;;-6.63;69.26;100441.25;4935182;29;20078;-60
2023/12/11 00:11:15;;;;;;;5.07;2.78;;;;;;;-6.68;69.02;100433.47;4937270;29;20035;-54
2023/12/11 00:13:41;;;;;;;6.70;2.80;;;;;;;-6.61;68.98;100427.03;4948589;29;20055;-56
2023/12/11 00:16:07;;;;;;;8.77;3.00;;;;;;;-6.62;69.04;100425.31;4948683;29;20054;-56
2023/12/11 00:18:32;;;;;;;8.82;3.63;;;;;;;-6.63;68.89;100424.44;4935912;29;20110;-53
2023/12/11 00:21:00;;;;;;;8.23;2.75;;;;;;;-6.62;69.03;100422.78;4925368;29;21358;-55
2023/12/11 00:23:26;;;;;;;10.73;3.10;;;;;;;-6.57;69.07;100426.38;4949926;29;20043;-55
2023/12/11 00:25:52;;;;;;;6.15;3.03;;;;;;;-6.51;68.71;100414.03;4934599;29;20067;-55
2023/12/11 00:28:18;;;;;;;6.50;2.42;;;;;;;-6.91;68.55;100330.47;4933910;29;20081;-56
2023/12/11 00:30:44;;;;;;;8.30;2.35;;;;;;;-6.60;68.10;100417.00;4949997;28;20036;-58
2023/12/11 00:33:10;;;;;;;6.05;2.15;;;;;;;-6.72;68.39;100421.50;4949573;28;20050;-55
2023/12/11 00:35:35;;;;;;;6.60;2.72;;;;;;;-6.80;68.49;100422.78;4946435;29;20098;-53
2023/12/11 00:38:01;;;;;;;11.15;3.35;;;;;;;-6.79;69.09;100411.88;4949610;28;20065;-57
2023/12/11 00:40:27;;;;;;;8.48;2.42;;;;;;;-6.75;68.67;100408.69;4933217;29;20070;-58
2023/12/11 00:42:53;;;;;;;8.30;3.38;;;;;;;-7.05;68.79;100356.75;4948330;29;20482;-55
2023/12/11 00:45:19;;;;;;;4.25;2.05;;;;;;;-6.68;68.62;100402.25;4949608;28;20039;-53
2023/12/11 00:47:45;;;;;;;7.25;2.72;;;;;;;-6.67;68.65;100397.28;4947193;29;20039;-52
2023/12/11 00:50:11;;;;;;;6.55;2.72;;;;;;;-6.61;68.82;100400.09;4937013;29;20051;-53
2023/12/11 00:52:37;;;;;;;9.07;2.88;;;;;;;-6.53;68.89;100397.91;4950579;28;20526;-56
2023/12/11 00:55:03;;;;;;;8.65;2.42;;;;;;;-6.45;68.36;100407.59;4949253;29;20515;-54
2023/12/11 00:57:30;;;;;;;7.03;2.88;;;;;;;-6.63;68.49;100395.75;4948612;29;20054;-56
2023/12/11 00:59:56;;;;;;;7.72;2.47;;;;;;;-6.66;68.34;100398.16;4949222;28;20051;-58
2023/12/11 01:02:22;;;;;;;5.25;2.58;;;;;;;-6.67;68.41;100402.34;4948307;28;20054;-58
2023/12/11 01:04:47;;;;;;;6.53;2.47;;;;;;;-6.67;68.44;100398.94;4948083;29;20035;-56
2023/12/11 01:07:13;;;;;;;9.30;3.50;;;;;;;-6.74;68.87;100394.41;4951920;28;20055;-53
2023/12/11 01:09:41;;;;;;;8.07;1.98;;;;;;;-6.64;68.92;100405.00;4948084;29;20074;-56
2023/12/11 01:12:07;;;;;;;7.18;2.53;;;;;;;-6.67;69.00;100394.75;4927231;29;20432;-58
2023/12/11 01:14:33;;;;;;;13.82;3.63;;;;;;;-6.66;68.75;100399.03;4948624;29;20423;-55
2023/12/11 01:16:59;;;;;;;5.93;2.35;;;;;;;-6.66;68.70;100391.44;4948280;28;20039;-54
2023/12/11 01:19:24;;;;;;;10.00;3.42;;;;;;;-6.88;68.99;100360.91;4949941;29;20573;-56
2023/12/11 01:21:50;;;;;;;12.23;3.00;;;;;;;-6.90;69.21;100327.13;4938907;28;20043;-54
2023/12/11 01:24:16;;;;;;;5.68;3.10;;;;;;;-6.43;68.83;100385.72;4936925;29;20055;-55
2023/12/11 01:26:42;;;;;;;8.00;3.47;;;;;;;-6.49;68.90;100371.97;4948518;29;20511;-56
2023/12/11 01:29:08;;;;;;;10.38;3.15;;;;;;;-6.47;69.05;100371.22;4936770;29;20101;-57
2023/12/11 01:31:34;;;;;;;6.55;2.90;;;;;;;-6.35;69.18;100364.97;4948761;29;20039;-55
2023/12/11 01:33:59;;;;;;;10.07;3.60;;;;;;;-6.36;68.93;100366.63;4936385;29;20039;-58
2023/12/11 01:36:25;;;;;;;8.75;3.10;;;;;;;-6.38;69.33;100365.69;4947837;29;20190;-55
2023/12/11 01:38:51;;;;;;;9.70;3.17;;;;;;;-6.61;69.44;100321.72;4933256;29;20095;-53
2023/12/11 01:41:17;;;;;;;9.48;3.40;;;;;;;-6.63;69.48;100335.94;4946302;28;20035;-56
2023/12/11 01:43:56;;;;;;;8.98;3.08;;;;;;;-6.42;69.53;100358.78;4920551;29;20109;-56
2023/12/11 01:46:23;;;;;;;12.63;3.17;;;;;;;-6.41;69.28;100383.28;4939524;28;20048;-51
2023/12/11 01:48:50;;;;;;;6.38;2.92;;;;;;;-6.52;69.75;100367.63;4935994;29;20055;-56
2023/12/11 01:51:17;;;;;;;10.48;3.20;;;;;;;-6.59;69.67;100365.63;4918671;29;20074;-54
2023/12/11 01:53:48;;;;;;;12.00;3.70;;;;;;;-6.56;70.25;100373.34;4921092;29;20039;-56
2023/12/11 01:56:16;;;;;;;8.95;3.10;;;;;;;-6.53;69.61;100376.00;4953402;29;20102;-53
2023/12/11 01:58:41;;;;;;;14.95;4.25;;;;;;;-6.53;70.42;100362.50;4937317;29;20047;-56
2023/12/11 02:01:08;;;;;;;9.55;3.55;;;;;;;-6.50;70.58;100360.13;4951557;28;20555;-54
2023/12/11 02:03:34;;;;;;;11.38;3.78;;;;;;;-6.42;70.42;100364.69;4950647;29;20061;-54
2023/12/11 02:06:00;;;;;;;7.93;3.40;;;;;;;-6.39;69.82;100369.03;4944783;29;20039;-57
2023/12/11 02:08:26;;;;;;;9.73;2.95;;;;;;;-6.54;70.55;100361.63;4935728;29;20043;-54
2023/12/11 02:10:52;;;;;;;16.42;4.35;;;;;;;-6.76;71.04;100332.81;4950944;29;20049;-51
2023/12/11 02:13:18;;;;;;;12.27;3.95;;;;;;;-6.71;71.09;100342.34;4951647;28;20449;-53
2023/12/11 02:15:45;;;;;;;16.33;4.50;;;;;;;-6.54;71.23;100366.69;4951532;29;20126;-54
2023/12/11 02:18:13;;;;;;;10.15;3.55;;;;;;;-6.58;71.12;100367.34;4952445;28;20115;-56
2023/12/11 02:20:41;;;;;;;7.63;3.33;;;;;;;-6.60;71.62;100375.69;4938310;29;20111;-53
2023/12/11 02:23:15;;;;;;;11.10;4.60;;;;;;;-6.58;71.73;100374.94;4952308;28;20130;-56
2023/12/11 02:25:44;;;;;;;9.82;3.90;;;;;;;-6.48;72.28;100376.19;4953189;28;20150;-54
2023/12/11 02:28:10;;;;;;;16.33;4.80;;;;;;;-6.71;71.75;100344.88;4922410;28;20049;-55
2023/12/11 02:30:39;;;;;;;10.15;3.20;;;;;;;-6.47;72.19;100385.53;4950882;29;20051;-51
2023/12/11 02:33:05;;;;;;;10.75;2.92;;;;;;;-6.42;72.04;100387.47;4950014;29;20461;-52
2023/12/11 02:35:31;;;;;;;12.63;3.60;;;;;;;-6.44;71.98;100395.81;4921494;29;20832;-55
2023/12/11 02:37:57;;;;;;;8.80;3.97;;;;;;;-6.46;72.50;100385.59;4951630;28;20049;-55
2023/12/11 02:40:23;;;;;;;7.18;4.00;;;;;;;-6.48;72.71;100366.09;4940142;29;20035;-53
2023/12/11 02:42:49;;;;;;;9.60;4.13;;;;;;;-6.35;72.61;100378.50;4933969;29;20054;-51
2023/12/11 02:45:15;;;;;;;6.53;3.15;;;;;;;-6.53;72.62;100330.50;4950154;28;20415;-55
2023/12/11 02:47:41;;;;;;;9.30;3.83;;;;;;;-6.36;72.56;100365.78;4932121;29;20508;-56
2023/12/11 02:50:07;;;;;;;8.00;3.53;;;;;;;-6.44;72.75;100371.34;4939408;29;20471;-55
2023/12/11 02:52:33;;;;;;;12.27;3.42;;;;;;;-6.51;73.07;100371.03;4950090;29;20043;-56
2023/12/11 02:54:59;;;;;;;11.13;3.95;;;;;;;-6.59;73.40;100365.63;4938914;29;20090;-56
2023/12/11 02:57:25;;;;;;;8.70;3.28;;;;;;;-6.81;73.52;100321.63;4949066;28;20511;-53
2023/12/11 02:59:50;;;;;;;11.50;3.88;;;;;;;-6.56;73.74;100353.13;4950864;29;20043;-55
2023/12/11 03:02:16;;;;;;;14.50;3.55;;;;;;;-6.75;73.63;100309.28;4937161;29;20144;-57
2023/12/11 03:04:42;;;;;;;10.90;4.60;;;;;;;-6.59;73.81;100352.97;4949427;28;20035;-54
2023/12/11 03:07:08;;;;;;;13.95;4.88;;;;;;;-6.61;73.63;100367.22;4920767;29;20046;-52
2023/12/11 03:09:34;;;;;;;8.63;3.28;;;;;;;-6.88;74.00;100306.19;4953926;28;20063;-52
2023/12/11 03:12:00;;;;;;;7.93;3.85;;;;;;;-6.81;74.09;100340.19;4938412;29;20107;-52
2023/12/11 03:14:26;;;;;;;10.73;3.13;;;;;;;-6.68;75.16;100369.41;4936124;29;20531;-57
2023/12/11 03:16:52;;;;;;;13.77;4.28;;;;;;;-6.90;75.30;100328.00;4949134;28;20057;-53
2023/12/11 03:19:17;;;;;;;11.10;3.83;;;;;;;-6.96;75.15;100315.06;4949892;28;20038;-51
2023/12/11 03:21:43;;;;;;;13.70;4.47;;;;;;;-6.65;75.01;100379.66;4949190;29;20039;-52
2023/12/11 03:24:09;;;;;;;10.48;3.53;;;;;;;-6.72;75.11;100373.47;4917684;29;20110;-55
2023/12/11 03:26:35;;;;;;;14.88;3.83;;;;;;;-6.76;75.81;100364.00;4918920;29;20047;-55
2023/12/11 03:29:01;;;;;;;8.25;2.70;;;;;;;-6.67;75.52;100373.66;4951516;28;20535;-56
2023/12/11 03:31:27;;;;;;;8.63;2.47;;;;;;;-6.69;75.50;100373.59;4945198;29;20043;-55
2023/12/11 03:33:52;;;;;;;9.50;3.58;;;;;;;-6.69;75.30;100372.72;4938018;28;20122;-52
2023/12/11 03:36:19;;;;;;;10.95;4.22;;;;;;;-6.62;75.51;100365.50;4921562;29;20047;-53
2023/12/11 03:38:45;;;;;;;10.30;3.90;;;;;;;-6.51;75.82;100373.56;4947042;28;20638;-52
2023/12/11 03:41:10;;;;;;;7.63;2.97;;;;;;;-6.47;75.61;100366.16;4948315;29;20126;-56
2023/12/11 03:43:36;;;;;;;7.05;3.20;;;;;;;-6.53;75.57;100352.38;4948002;29;20202;-54
2023/12/11 03:46:03;;;;;;;12.65;3.42;;;;;;;-6.54;75.50;100364.16;4946889;28;20086;-52
2023/12/11 03:48:29;;;;;;;17.85;4.40;;;;;;;-6.78;75.77;100326.81;4948483;29;20043;-55
2023/12/11 03:50:56;;;;;;;9.50;3.90;;;;;;;-6.53;75.78;100363.38;4950041;29;20066;-53
2023/12/11 03:53:21;;;;;;;10.88;4.05;;;;;;;-6.57;75.77;100358.97;4949683;29;20046;-51
2023/12/11 03:55:48;;;;;;;17.52;3.90;;;;;;;-6.51;75.85;100361.78;4933573;29;20408;-55
2023/12/11 03:58:13;;;;;;;7.78;2.72;;;;;;;-6.49;76.22;100362.69;4955257;28;20072;-51
2023/12/11 04:00:40;;;;;;;7.80;3.10;;;;;;;-6.71;76.54;100317.06;4948769;29;20043;-52
2023/12/11 04:03:06;;;;;;;13.18;4.30;;;;;;;-6.71;76.50;100311.13;4937131;29;20031;-53
2023/12/11 04:05:31;;;;;;;8.48;3.35;;;;;;;-6.55;75.75;100348.94;4927458;29;20113;-57
2023/12/11 04:07:57;;;;;;;16.25;4.00;;;;;;;-6.45;76.03;100358.66;4951228;28;20039;-60
2023/12/11 04:10:23;;;;;;;14.52;4.93;;;;;;;-6.37;75.78;100356.44;4949326;28;20053;-58
2023/12/11 04:12:49;;;;;;;16.05;4.80;;;;;;;-6.32;75.40;100358.38;4931442;29;20039;-55
2023/12/11 04:15:15;;;;;;;12.75;3.95;;;;;;;-6.31;74.82;100354.19;4949408;28;20043;-57
2023/12/11 04:17:42;;;;;;;8.40;3.40;;;;;;;-6.51;74.43;100328.03;4949733;28;20156;-57
2023/12/11 04:20:09;;;;;;;11.18;3.88;;;;;;;-6.23;74.65;100360.47;4930278;29;20044;-53
2023/12/11 04:22:35;;;;;;;9.43;3.38;;;;;;;-6.26;73.81;100372.97;4930996;29;20129;-55
2023/12/11 04:25:01;;;;;;;12.27;4.47;;;;;;;-6.61;73.94;100311.59;4918867;28;20113;-54
2023/12/11 04:27:29;;;;;;;9.00;3.80;;;;;;;-6.24;73.81;100362.13;4933893;29;20093;-54
2023/12/11 04:29:55;;;;;;;10.38;3.17;;;;;;;-6.22;73.51;100354.56;4914596;29;20051;-54
2023/12/11 04:32:21;;;;;;;8.50;3.33;;;;;;;-6.18;73.08;100359.00;4931551;29;20050;-55
2023/12/11 04:34:46;;;;;;;13.23;4.38;;;;;;;-6.27;73.29;100366.16;4947829;28;20066;-62
2023/12/11 04:37:12;;;;;;;8.90;3.53;;;;;;;-6.21;73.41;100358.84;4934655;29;20043;-56
2023/12/11 04:39:38;;;;;;;15.75;4.82;;;;;;;-6.10;73.19;100365.22;4930522;29;20051;-55
2023/12/11 04:42:04;;;;;;;10.77;3.80;;;;;;;-6.06;73.59;100365.41;4946256;28;20058;-55
2023/12/11 04:44:30;;;;;;;10.90;4.03;;;;;;;-6.04;73.36;100375.63;4949193;29;20152;-58
2023/12/11 04:46:56;;;;;;;9.88;3.78;;;;;;;-6.01;73.66;100369.00;4931279;29;20127;-53
2023/12/11 04:49:22;;;;;;;14.95;4.22;;;;;;;-6.24;73.75;100298.00;4930562;29;20515;-55
2023/12/11 04:51:48;;;;;;;8.38;3.22;;;;;;;-5.99;73.57;100331.13;4915749;29;20051;-56
2023/12/11 04:54:14;;;;;;;13.52;4.18;;;;;;;-5.87;73.73;100367.06;4915727;29;20427;-56
2023/12/11 04:56:40;;;;;;;12.77;3.95;;;;;;;-5.97;73.36;100370.03;4946292;28;20582;-53
2023/12/11 04:59:06;;;;;;;11.50;3.45;;;;;;;-5.97;73.57;100356.50;4930751;29;20043;-58
2023/12/11 05:01:32;;;;;;;13.88;4.70;;;;;;;-5.91;73.51;100366.88;4947778;29;20047;-57
2023/12/11 05:03:57;;;;;;;15.85;4.47;;;;;;;-5.84;73.63;100362.09;4932408;29;20055;-53
2023/12/11 05:06:23;;;;;;;11.73;4.45;;;;;;;-5.89;74.04;100370.34;4944912;28;20047;-55
2023/12/11 05:08:49;;;;;;;13.23;3.53;;;;;;;-5.93;73.59;100364.28;4946730;29;20067;-57
2023/12/11 05:11:15;;;;;;;8.57;3.70;;;;;;;-5.88;73.81;100367.88;4933893;29;20043;-56
2023/12/11 05:13:41;;;;;;;12.40;3.33;;;;;;;-5.89;73.61;100367.78;4934352;29;20055;-60
2023/12/11 05:16:07;;;;;;;12.90;4.57;;;;;;;-5.97;73.12;100371.69;4947552;29;20049;-53
2023/12/11 05:18:33;;;;;;;9.63;3.75;;;;;;;-6.01;73.19;100360.56;4925526;29;20062;-57
2023/12/11 05:21:05;;;;;;;15.65;5.28;;;;;;;-6.04;72.94;100356.25;4934522;29;20039;-62
2023/12/11 05:23:31;;;;;;;9.55;3.38;;;;;;;-5.95;73.13;100353.22;4948783;28;20046;-59
2023/12/11 05:25:57;;;;;;;9.25;3.83;;;;;;;-5.97;72.97;100348.91;4948372;28;20038;-59
2023/12/11 05:28:22;;;;;;;8.38;3.65;;;;;;;-5.92;73.29;100344.91;4932379;29;20533;-60
2023/12/11 05:30:48;;;;;;;10.07;4.28;;;;;;;-5.92;73.07;100360.97;4932937;29;20098;-62
2023/12/11 05:33:14;;;;;;;12.00;4.60;;;;;;;-6.11;73.27;100320.47;4950786;28;20102;-64
2023/12/11 05:35:40;;;;;;;22.27;5.05;;;;;;;-5.91;72.95;100352.53;4951822;28;20083;-60
2023/12/11 05:38:06;;;;;;;18.85;4.78;;;;;;;-5.84;73.13;100348.56;4952932;28;20047;-59
2023/12/11 05:40:31;;;;;;;13.43;4.38;;;;;;;-5.80;73.14;100338.63;4951691;28;20046;-61
2023/12/11 05:42:57;;;;;;;12.13;4.30;;;;;;;-6.07;72.75;100299.56;4952401;28;20493;-59
2023/12/11 05:45:23;;;;;;;12.32;5.07;;;;;;;-5.76;73.23;100345.56;4952091;29;20419;-59
2023/12/11 05:47:49;;;;;;;13.68;5.05;;;;;;;-5.76;72.96;100340.50;4951644;29;20093;-55
2023/12/11 05:50:15;;;;;;;10.52;4.85;;;;;;;-5.76;73.20;100337.97;4940247;29;20047;-56
2023/12/11 05:52:41;;;;;;;9.20;3.15;;;;;;;-5.89;72.81;100314.63;4935724;29;20807;-59
2023/12/11 05:55:07;;;;;;;17.25;5.15;;;;;;;-5.67;72.58;100343.41;4920161;29;20051;-56
2023/12/11 05:57:32;;;;;;;10.30;4.10;;;;;;;-5.62;73.14;100348.66;4949653;29;20080;-58
2023/12/11 05:59:58;;;;;;;8.25;3.50;;;;;;;-5.71;72.80;100344.09;4949413;29;20043;-58
2023/12/11 06:02:24;;;;;;;15.20;4.57;;;;;;;-5.70;72.67;100334.78;4935646;29;20027;-57
2023/12/11 06:04:51;;;;;;;11.15;5.28;;;;;;;-5.60;72.91;100334.41;4949553;29;20528;-56
2023/12/11 06:07:17;;;;;;;12.07;4.95;;;;;;;-5.51;72.87;100337.28;4951462;28;20513;-59
2023/12/11 06:09:43;;;;;;;16.50;4.70;;;;;;;-5.53;72.10;100332.94;4951784;29;20048;-58
2023/12/11 06:12:09;;;;;;;10.30;3.75;;;;;;;-5.67;72.40;100325.69;4950634;29;20050;-55
2023/12/11 06:14:40;;;;;;;10.48;4.53;;;;;;;-5.70;72.16;100340.72;4939565;29;20054;-55
2023/12/11 06:17:06;;;;;;;6.38;3.30;;;;;;;-5.62;72.91;100333.47;4951772;29;20047;-58
2023/12/11 06:19:31;;;;;;;18.75;4.82;;;;;;;-5.66;72.52;100334.16;4938892;29;20047;-58
2023/12/11 06:21:57;;;;;;;9.32;3.78;;;;;;;-5.53;72.31;100328.75;4950753;29;20531;-58
2023/12/11 06:24:23;;;;;;;15.85;4.72;;;;;;;-5.47;72.63;100313.81;4950537;29;20054;-57
2023/12/11 06:26:49;;;;;;;8.55;3.58;;;;;;;-5.50;72.15;100287.50;4950683;29;20048;-56
2023/12/11 06:29:15;;;;;;;13.13;4.65;;;;;;;-5.30;72.37;100312.78;4951463;28;20047;-52
2023/12/11 06:31:41;;;;;;;16.50;4.88;;;;;;;-5.07;72.48;100325.47;4932411;29;20050;-58
2023/12/11 06:34:07;;;;;;;10.30;2.92;;;;;;;-5.02;72.42;100326.53;4951277;29;20061;-58
2023/12/11 06:36:32;;;;;;;10.80;4.47;;;;;;;-5.12;73.02;100323.63;4938501;29;20483;-58
2023/12/11 06:38:58;;;;;;;14.27;4.63;;;;;;;-5.06;72.98;100317.06;4936416;29;20050;-61
2023/12/11 06:41:24;;;;;;;13.40;4.22;;;;;;;-5.08;72.52;100317.03;4936360;29;20126;-56
2023/12/11 06:43:54;;;;;;;11.70;4.68;;;;;;;-5.05;72.45;100321.31;4949901;28;20039;-57
2023/12/11 06:46:20;;;;;;;13.20;4.20;;;;;;;-4.96;72.41;100311.53;4920261;29;20043;-56
2023/12/11 06:48:46;;;;;;;12.75;3.88;;;;;;;-4.92;71.96;100311.69;4948351;29;20169;-56
2023/12/11 06:51:16;;;;;;;7.63;3.00;;;;;;;-4.98;71.30;100303.88;4934152;29;20049;-57
2023/12/11 06:53:41;;;;;;;13.18;5.05;;;;;;;-5.16;71.21;100298.09;4948154;29;20042;-59
2023/12/11 06:56:08;;;;;;;13.07;3.95;;;;;;;-5.10;71.11;100303.41;4937916;29;20043;-58
2023/12/11 06:58:34;;;;;;;10.73;3.63;;;;;;;-5.09;70.80;100282.34;4938251;28;20047;-56
2023/12/11 07:01:00;;;;;;;10.40;4.03;;;;;;;-5.05;70.96;100293.44;4936276;29;20042;-57
2023/12/11 07:03:26;;;;;;;11.45;4.40;;;;;;;-4.87;70.72;100294.13;4938072;29;20130;-57
2023/12/11 07:05:52;;;;;;;17.55;5.60;;;;;;;-4.96;70.60;100259.16;4918225;29;20091;-59
2023/12/11 07:08:18;;;;;;;12.55;4.28;;;;;;;-4.74;70.45;100297.16;4932733;29;20078;-58
2023/12/11 07:10:43;;;;;;;11.93;3.78;;;;;;;-4.63;69.77;100302.63;4946707;29;20441;-57
2023/12/11 07:13:09;;;;;;;14.23;4.82;;;;;;;-4.87;70.15;100262.03;4949632;29;20050;-58
2023/12/11 07:15:35;;;;;;;10.65;4.47;;;;;;;-4.62;69.49;100298.41;4933787;29;20435;-54
2023/12/11 07:18:01;;;;;;;12.82;4.50;;;;;;;-4.71;69.54;100296.44;4935360;29;20102;-54
2023/12/11 07:20:28;;;;;;;10.77;4.30;;;;;;;-4.49;69.98;100290.41;4951780;28;20043;-57
2023/12/11 07:22:55;;;;;;;8.32;4.10;;;;;;;-4.45;69.04;100298.19;4937724;29;20047;-55
2023/12/11 07:25:20;;;;;;;10.40;3.30;;;;;;;-4.55;69.32;100302.91;4933906;29;20043;-61
2023/12/11 07:27:46;;;;;;;5.82;3.35;;;;;;;-4.47;69.23;100301.50;4936092;29;20603;-55
2023/12/11 07:30:14;;;;;;;11.90;4.68;;;;;;;-4.81;69.15;100256.28;4937548;29;20051;-57
2023/12/11 07:32:41;;;;;;;8.02;2.97;;;;;;;-4.58;69.10;100303.66;4949080;29;20133;-61
2023/12/11 07:35:11;;;;;;;7.70;3.15;;;;;;;-4.72;68.91;100287.09;4933549;29;20130;-60
2023/12/11 07:37:40;;;;;;;9.85;3.22;;;;;;;-4.82;69.07;100292.63;4950186;29;20106;-63
2023/12/11 07:40:07;;;;;;;10.50;3.53;;;;;;;-4.80;69.24;100296.06;4949111;29;20505;-59
2023/12/11 07:42:33;;;;;;;5.47;2.67;;;;;;;-4.86;69.73;100284.03;4934380;29;20107;-62
2023/12/11 07:44:59;;;;;;;7.22;3.83;;;;;;;-5.12;69.40;100267.88;4950409;29;20075;-60
2023/12/11 07:47:25;;;;;;;9.00;2.90;;;;;;;-5.07;70.74;100295.91;4950079;29;20591;-59
2023/12/11 07:49:51;;;;;;;10.93;3.20;;;;;;;-5.01;70.97;100285.13;4936136;29;20169;-60
2023/12/11 07:52:17;;;;;;;6.93;3.10;;;;;;;-4.97;70.32;100287.84;4950493;29;20540;-59
2023/12/11 07:54:43;;;;;;;8.88;3.75;;;;;;;-5.12;69.90;100300.81;4949318;28;20039;-60
2023/12/11 07:57:10;;;;;;;17.95;4.43;;;;;;;-5.20;70.74;100276.88;4933177;29;20049;-59
2023/12/11 07:59:36;;;;;;;13.80;4.13;;;;;;;-5.03;71.01;100276.63;4950085;29;20095;-60
2023/12/11 08:02:02;;;;;;;6.55;3.28;;;;;;;-4.85;70.85;100275.63;4934621;29;20043;-61
2023/12/11 08:04:27;;;;;;;10.50;4.70;;;;;;;-4.68;70.53;100273.69;4950326;29;20186;-61
2023/12/11 08:06:53;;;;;;;15.80;3.85;;;;;;;-4.58;69.82;100259.66;4933715;29;20082;-62
2023/12/11 08:09:19;;;;;;;8.43;3.50;;;;;;;-4.84;70.04;100210.56;4931253;29;20047;-60
2023/12/11 08:11:45;;;;;;;11.63;4.18;;;;;;;-4.70;69.23;100250.81;4948847;29;20467;-62
2023/12/11 08:14:11;;;;;;;12.18;3.63;;;;;;;-4.60;69.76;100246.91;4950095;29;20050;-61
2023/12/11 08:16:37;;;;;;;12.82;4.80;;;;;;;-4.41;69.34;100246.75;4949267;29;20046;-62
2023/12/11 08:19:03;;;;;;;11.25;3.97;;;;;;;-4.38;69.21;100249.38;4949665;28;20545;-60
2023/12/11 08:21:28;;;;;;;14.43;4.65;;;;;;;-4.38;68.86;100236.69;4932372;29;20494;-59
2023/12/11 08:23:54;;;;;;;11.68;3.20;;;;;;;-4.15;68.81;100241.69;4917040;29;20621;-60
2023/12/11 08:26:20;;;;;;;12.00;4.05;;;;;;;-4.13;68.22;100237.50;4932589;29;20526;-62
2023/12/11 08:28:48;;;;;;;7.97;3.45;;;;;;;-4.10;67.77;100251.19;4915776;29;20491;-61
2023/12/11 08:31:15;;;;;;;8.77;3.75;;;;;;;-4.22;67.93;100227.06;4944791;28;20414;-62
2023/12/11 08:33:41;;;;;;;15.25;4.82;;;;;;;-4.08;68.09;100228.41;4941412;29;20415;-61
2023/12/11 08:36:07;;;;;;;12.82;5.53;;;;;;;-4.01;68.47;100210.00;4913790;29;20043;-62
2023/12/11 08:38:33;;;;;;;9.73;3.75;;;;;;;-4.06;67.98;100209.84;4931994;29;20089;-60
2023/12/11 08:40:59;;;;;;;6.88;3.30;;;;;;;-4.04;68.76;100225.13;4947270;29;20043;-61
2023/12/11 08:43:26;;;;;;;10.13;3.80;;;;;;;-4.32;68.47;100186.16;4930786;29;20090;-60
2023/12/11 08:45:52;;;;;;;10.57;3.80;;;;;;;-4.14;68.18;100215.50;4947565;28;20043;-62
2023/12/11 08:48:17;;;;;;;9.55;3.63;;;;;;;-4.37;68.07;100195.28;4947796;28;20042;-62
2023/12/11 08:50:43;;;;;;;14.00;3.72;;;;;;;-4.22;68.05;100214.38;4951391;29;20515;-61
2023/12/11 08:53:09;;;;;;;8.80;2.90;;;;;;;-4.21;67.46;100211.03;4949645;28;20125;-61
2023/12/11 08:55:35;;;;;;;16.17;3.03;;;;;;;-4.41;67.66;100210.38;4947525;28;20522;-60
2023/12/11 08:58:01;;;;;;;6.15;2.22;;;;;;;-4.49;67.53;100205.03;4916130;29;20043;-62
2023/12/11 09:00:28;;;;;;;10.18;3.38;;;;;;;-4.65;67.67;100194.28;4903490;29;20043;-61
2023/12/11 09:02:54;;;;;;;10.55;4.30;;;;;;;-4.77;68.51;100162.66;4917760;29;20085;-60
2023/12/11 09:05:20;;;;;;;37.03;3.90;;;;;;;-4.57;68.35;100192.91;4947823;28;20435;-61
2023/12/11 09:07:45;;;;;;;7.45;2.67;;;;;;;-4.84;68.88;100159.84;4946732;29;20047;-60
2023/12/11 09:10:11;;;;;;;10.43;3.40;;;;;;;-4.69;68.96;100188.25;4931096;29;20069;-60
2023/12/11 09:12:38;;;;;;;9.75;3.10;;;;;;;-4.78;69.65;100183.75;4947343;29;20046;-63
2023/12/11 09:15:04;;;;;;;6.55;2.72;;;;;;;-5.08;69.81;100141.25;4931075;29;20495;-62
2023/12/11 09:17:32;;;;;;;7.72;3.40;;;;;;;-4.92;70.35;100167.16;4948494;29;20051;-62
2023/12/11 09:19:58;;;;;;;10.70;3.75;;;;;;;-4.89;70.53;100174.03;4947479;29;20454;-61
2023/12/11 09:22:25;;;;;;;7.53;3.30;;;;;;;-4.86;70.91;100164.84;4910761;29;20039;-61
2023/12/11 09:24:51;;;;;;;9.10;2.53;;;;;;;-4.85;71.09;100173.31;4943355;28;20043;-62
2023/12/11 09:27:17;;;;;;;11.15;3.17;;;;;;;-4.96;70.98;100174.63;4930888;29;20093;-62
2023/12/11 09:29:43;;;;;;;12.60;3.80;;;;;;;-4.88;71.75;100166.50;4935272;29;20533;-62
2023/12/11 09:32:09;;;;;;;13.70;4.07;;;;;;;-4.82;71.10;100163.31;4935201;29;20129;-64
2023/12/11 09:34:34;;;;;;;5.72;2.25;;;;;;;-4.75;70.71;100162.69;4945834;29;20074;-63
2023/12/11 09:37:00;;;;;;;9.23;3.00;;;;;;;-4.93;70.64;100157.88;4937127;29;20043;-66
2023/12/11 09:39:26;;;;;;;10.25;3.05;;;;;;;-4.97;70.60;100153.47;4946234;29;20051;-63
2023/12/11 09:41:52;;;;;;;11.32;3.70;;;;;;;-4.96;71.87;100144.19;4915875;29;20035;-62
2023/12/11 09:44:19;;;;;;;11.60;3.03;;;;;;;-5.07;72.39;100131.16;4933733;29;20063;-62
2023/12/11 09:47:17;;;;;;;11.30;3.70;;;;;;;-5.03;72.09;100134.69;4932379;29;20035;-63
2023/12/11 09:49:45;;;;;;;8.32;2.35;;;;;;;-4.97;71.71;100150.94;4945746;29;20101;-63
2023/12/11 09:52:13;;;;;;;9.57;3.73;;;;;;;-5.19;71.67;100118.94;4914925;29;20090;-63
2023/12/11 09:54:40;;;;;;;9.02;2.85;;;;;;;-5.02;71.55;100139.78;4932872;29;20294;-64
2023/12/11 09:57:09;;;;;;;10.57;3.47;;;;;;;-5.16;71.61;100121.56;4948616;29;20130;-60
2023/12/11 09:59:36;;;;;;;11.70;3.53;;;;;;;-4.95;71.43;100151.00;4929701;29;20059;-61
2023/12/11 10:02:04;;;;;;;13.82;4.15;;;;;;;-4.93;71.50;100150.25;4926154;29;20070;-62
2023/12/11 10:04:30;;;;;;;9.77;3.03;;;;;;;-4.88;71.76;100136.06;4935123;29;20541;-61
2023/12/11 10:06:56;;;;;;;13.32;3.47;;;;;;;-5.00;72.98;100130.56;4922768;29;20046;-61
2023/12/11 10:09:35;;;;;;;8.57;3.58;;;;;;;-5.13;73.04;100134.31;4947251;28;20051;-59
2023/12/11 10:12:02;;;;;;;8.70;2.67;;;;;;;-5.24;72.41;100155.94;4933401;29;20462;-61
2023/12/11 10:14:33;;;;;;;8.38;3.33;;;;;;;-5.20;72.81;100137.47;4928665;29;20491;-68
2023/12/11 10:17:14;;;;;;;6.75;2.92;;;;;;;-5.02;72.75;100121.19;4947938;29;20090;-62
2023/12/11 10:19:40;;;;;;;14.05;3.50;;;;;;;-5.06;73.07;100129.47;4949064;28;20043;-61
2023/12/11 10:22:06;;;;;;;11.90;3.38;;;;;;;-5.14;73.03;100122.50;4950895;29;20510;-61
2023/12/11 10:24:31;;;;;;;6.07;2.90;;;;;;;-5.15;72.63;100122.44;4918895;29;20055;-59
2023/12/11 10:26:57;;;;;;;9.32;2.83;;;;;;;-5.31;73.00;100126.09;4934135;29;20050;-63
2023/12/11 10:29:25;;;;;;;13.32;4.18;;;;;;;-5.47;73.84;100090.03;4916859;29;20408;-63
2023/12/11 10:31:53;;;;;;;5.47;2.60;;;;;;;-5.24;73.59;100143.25;4932163;29;20072;-61
2023/12/11 10:34:39;;;;;;;22.73;3.40;;;;;;;-5.31;73.36;100120.16;4950388;29;20035;-56
2023/12/11 10:37:05;;;;;;;8.55;2.63;;;;;;;-5.30;73.85;100139.63;4929231;29;20050;-63
2023/12/11 10:39:31;;;;;;;12.20;3.80;;;;;;;-5.28;74.29;100125.31;4949367;29;20043;-59
2023/12/11 10:42:11;;;;;;;9.98;3.30;;;;;;;-5.50;74.25;100073.06;4934156;29;20245;-60
2023/12/11 10:44:38;;;;;;;8.38;2.25;;;;;;;-5.18;74.63;100124.88;4918892;29;20059;-60
2023/12/11 10:47:03;;;;;;;6.13;2.60;;;;;;;-5.17;74.22;100112.22;4949689;29;20042;-57
2023/12/11 10:49:30;;;;;;;6.75;2.70;;;;;;;-5.22;74.92;100120.47;4949562;29;20788;-62
2023/12/11 10:51:56;;;;;;;9.23;3.45;;;;;;;-5.24;75.53;100105.25;4934776;29;20046;-61
2023/12/11 10:54:23;;;;;;;10.88;3.20;;;;;;;-5.04;77.09;100116.06;4949111;29;20094;-58
2023/12/11 10:56:49;;;;;;;4.63;1.85;;;;;;;-5.05;76.05;100105.88;4937365;29;20044;-62
2023/12/11 10:59:15;;;;;;;11.00;3.35;;;;;;;-5.10;75.23;100110.78;4920359;29;20078;-61
2023/12/11 11:01:44;;;;;;;8.82;3.28;;;;;;;-5.06;75.99;100092.31;4950532;29;20086;-58
2023/12/11 11:04:11;;;;;;;10.48;3.10;;;;;;;-4.94;76.71;100096.97;4948080;29;20411;-61
2023/12/11 11:06:40;;;;;;;7.82;2.47;;;;;;;-4.77;76.44;100094.19;4936120;29;20160;-59
2023/12/11 11:09:10;;;;;;;11.82;2.97;;;;;;;-4.74;75.22;100095.94;4937724;29;20074;-63
2023/12/11 11:11:41;;;;;;;8.15;3.20;;;;;;;-4.94;74.36;100062.31;4932446;29;20791;-60
2023/12/11 11:14:25;;;;;;;11.05;2.70;;;;;;;-4.81;73.46;100089.78;4935276;29;20094;-61
2023/12/11 11:16:55;;;;;;;6.03;2.28;;;;;;;-4.76;72.92;100080.66;4950178;29;20035;-63
2023/12/11 11:19:21;;;;;;;7.75;3.00;;;;;;;-4.78;73.08;100089.91;4949083;29;20430;-60